createdAt,value
2019-01-19T00:00:34.401Z,8.50
2019-01-19T00:03:08.864Z,11.35
2019-01-19T00:05:40.370Z,13.62
2019-01-19T00:08:14.772Z,12.82
2019-01-19T00:11:01.115Z,7.72
2019-01-19T00:13:35.342Z,8.73
2019-01-19T00:16:15.990Z,9.73
2019-01-19T00:19:16.281Z,13.48
2019-01-19T00:21:53.667Z,14.78
2019-01-19T00:24:25.181Z,7.50
2019-01-19T00:27:19.226Z,8.95
2019-01-19T00:30:17.907Z,10.23
2019-01-19T00:33:04.600Z,12.15
2019-01-19T00:35:45.040Z,12.35
2019-01-19T00:38:16.543Z,14.43
2019-01-19T00:41:00.010Z,11.08
2019-01-19T00:43:29.120Z,11.12
2019-01-19T00:46:09.368Z,11.05
2019-01-19T00:48:53.079Z,9.55
2019-01-19T00:51:27.240Z,13.48
2019-01-19T00:54:01.309Z,11.12
2019-01-19T00:57:00.101Z,10.43
2019-01-19T00:59:30.621Z,7.87
2019-01-19T01:02:02.107Z,7.80
2019-01-19T01:04:42.594Z,10.82
2019-01-19T01:07:20.072Z,15.13
2019-01-19T01:10:03.797Z,15.68
2019-01-19T01:12:51.745Z,10.50
2019-01-19T01:15:25.911Z,8.50
2019-01-19T01:17:56.809Z,7.30
2019-01-19T01:20:30.973Z,8.73
2019-01-19T01:23:20.655Z,9.58
2019-01-19T01:26:17.816Z,12.50
2019-01-19T01:29:01.024Z,10.82
2019-01-19T01:31:35.323Z,13.45
2019-01-19T01:34:18.663Z,11.10
2019-01-19T01:37:14.142Z,9.33
2019-01-19T01:39:54.313Z,10.82
2019-01-19T01:42:48.218Z,8.03
2019-01-19T01:45:25.268Z,9.75
2019-01-19T01:48:18.030Z,12.25
2019-01-19T01:50:55.157Z,8.00
2019-01-19T01:53:32.355Z,8.05
2019-01-19T01:56:00.887Z,12.37
2019-01-19T01:58:32.373Z,14.70
2019-01-19T02:01:09.861Z,9.75
2019-01-19T02:04:13.601Z,12.03
2019-01-19T02:07:06.510Z,10.30
2019-01-19T02:09:44.202Z,7.53
2019-01-19T02:12:27.699Z,8.50
2019-01-19T02:15:11.127Z,9.43
2019-01-19T02:17:48.290Z,13.70
2019-01-19T02:20:25.403Z,7.75
2019-01-19T02:23:29.211Z,8.75
2019-01-19T02:26:03.355Z,9.45
2019-01-19T02:28:43.937Z,11.45
2019-01-19T02:31:24.443Z,9.40
2019-01-19T02:34:10.665Z,10.13
2019-01-19T02:37:01.880Z,7.03
2019-01-19T02:39:38.629Z,7.37
2019-01-19T02:42:19.313Z,8.65
2019-01-19T02:45:22.027Z,6.75
2019-01-19T02:48:07.876Z,10.15
2019-01-19T02:50:44.863Z,8.53
2019-01-19T02:53:31.260Z,10.32
2019-01-19T02:56:02.793Z,7.08
2019-01-19T02:58:37.017Z,9.60
2019-01-19T03:01:31.072Z,8.55
2019-01-19T03:04:17.613Z,9.63
2019-01-19T03:07:01.158Z,7.47
2019-01-19T03:09:53.318Z,9.53
2019-01-19T03:12:37.127Z,12.75
2019-01-19T03:15:17.408Z,13.45
2019-01-19T03:17:57.794Z,7.92
2019-01-19T03:20:35.520Z,12.33
2019-01-19T03:23:09.902Z,11.78
2019-01-19T03:25:50.252Z,8.88
2019-01-19T03:28:36.873Z,6.30
2019-01-19T03:31:30.877Z,12.68
2019-01-19T03:34:02.393Z,13.35
2019-01-19T03:36:45.831Z,11.45
2019-01-19T03:39:35.951Z,9.80
2019-01-19T03:42:16.709Z,12.43
2019-01-19T03:44:59.800Z,8.75
2019-01-19T03:47:34.149Z,9.88
2019-01-19T03:50:08.546Z,8.60
2019-01-19T03:52:42.966Z,10.40
2019-01-19T03:55:29.461Z,11.48
2019-01-19T03:58:00.968Z,16.62
2019-01-19T04:00:46.977Z,14.18
2019-01-19T04:03:33.476Z,10.32
2019-01-19T04:06:21.292Z,13.13
2019-01-19T04:08:58.035Z,6.95
2019-01-19T04:11:47.526Z,9.18
2019-01-19T04:14:37.103Z,7.97
2019-01-19T04:17:27.997Z,9.08
2019-01-19T04:20:18.327Z,8.33
2019-01-19T04:22:47.009Z,7.58
2019-01-19T04:25:18.535Z,11.50
2019-01-19T04:27:46.997Z,8.45
2019-01-19T04:30:15.574Z,6.17
2019-01-19T04:32:43.999Z,9.80
2019-01-19T04:35:12.474Z,7.45
2019-01-19T04:37:40.903Z,7.92
2019-01-19T04:40:12.231Z,11.60
2019-01-19T04:42:42.433Z,10.25
2019-01-19T04:45:11.039Z,9.10
2019-01-19T04:47:39.466Z,11.00
2019-01-19T04:50:10.584Z,12.40
2019-01-19T04:52:39.058Z,15.05
2019-01-19T04:55:07.998Z,10.30
2019-01-19T04:57:36.433Z,10.98
2019-01-19T05:00:17.869Z,9.93
2019-01-19T05:02:46.471Z,9.48
2019-01-19T05:05:14.953Z,11.30
2019-01-19T05:07:43.382Z,8.25
2019-01-19T05:10:13.080Z,11.30
2019-01-19T05:12:41.546Z,12.43
2019-01-19T05:15:12.952Z,11.53
2019-01-19T05:17:41.405Z,11.08
2019-01-19T05:20:12.298Z,10.93
2019-01-19T05:22:40.749Z,14.30
2019-01-19T05:25:11.340Z,12.78
2019-01-19T05:27:39.800Z,14.38
2019-01-19T05:30:18.882Z,13.03
2019-01-19T05:32:47.488Z,15.60
2019-01-19T05:35:15.948Z,13.95
2019-01-19T05:37:44.416Z,14.58
2019-01-19T05:40:13.714Z,15.32
2019-01-19T05:42:42.312Z,15.08
2019-01-19T05:45:13.222Z,16.50
2019-01-19T05:47:41.685Z,15.68
2019-01-19T05:50:15.620Z,16.75
2019-01-19T05:52:44.170Z,23.42
2019-01-19T05:55:12.653Z,23.73
2019-01-19T05:57:41.110Z,14.55
2019-01-19T06:00:12.636Z,18.95
2019-01-19T06:02:48.320Z,21.17
2019-01-19T06:05:28.630Z,17.82
2019-01-19T06:07:59.843Z,19.02
2019-01-19T06:10:28.248Z,21.85
2019-01-19T06:12:56.701Z,15.38
2019-01-19T06:15:25.279Z,23.05
2019-01-19T06:17:53.754Z,27.77
2019-01-19T06:20:22.356Z,22.58
2019-01-19T06:22:50.824Z,20.00
2019-01-19T06:25:19.342Z,19.65
2019-01-19T06:27:47.838Z,20.85
2019-01-19T06:30:21.602Z,22.58
2019-01-19T06:32:50.081Z,19.52
2019-01-19T06:35:18.686Z,15.98
2019-01-19T06:37:47.147Z,16.30
2019-01-19T06:40:17.426Z,18.77
2019-01-19T06:42:46.144Z,23.20
2019-01-19T06:45:19.389Z,15.35
2019-01-19T06:47:47.852Z,24.10
2019-01-19T06:50:17.326Z,18.00
2019-01-19T06:52:46.079Z,20.62
2019-01-19T06:55:17.498Z,21.23
2019-01-19T06:57:45.955Z,18.85
2019-01-19T07:00:17.238Z,19.80
2019-01-19T07:02:45.934Z,13.38
2019-01-19T07:05:14.542Z,19.10
2019-01-19T07:07:43.157Z,17.17
2019-01-19T07:10:14.297Z,13.83
2019-01-19T07:12:42.748Z,17.12
2019-01-19T07:15:12.436Z,13.35
2019-01-19T07:17:40.888Z,17.40
2019-01-19T07:20:14.772Z,13.60
2019-01-19T07:22:43.228Z,19.77
2019-01-19T07:25:11.665Z,15.55
2019-01-19T07:27:40.126Z,17.70
2019-01-19T07:30:14.398Z,14.03
2019-01-19T07:32:43.071Z,17.40
2019-01-19T07:35:11.761Z,16.77
2019-01-19T07:37:40.215Z,18.52
2019-01-19T07:40:11.613Z,28.62
2019-01-19T07:42:41.482Z,25.37
2019-01-19T07:45:12.187Z,16.80
2019-01-19T07:47:41.697Z,18.87
2019-01-19T07:50:12.800Z,21.73
2019-01-19T07:52:41.275Z,19.70
2019-01-19T07:55:12.147Z,25.23
2019-01-19T07:57:40.587Z,16.87
2019-01-19T08:00:12.095Z,22.62
2019-01-19T08:02:40.696Z,22.05
2019-01-19T08:05:11.139Z,24.05
2019-01-19T08:07:39.595Z,23.42
2019-01-19T08:10:11.169Z,20.82
2019-01-19T08:12:39.615Z,20.20
2019-01-19T08:15:11.145Z,20.85
2019-01-19T08:17:39.741Z,21.17
2019-01-19T08:20:11.613Z,17.40
2019-01-19T08:22:40.069Z,19.27
2019-01-19T08:25:10.275Z,19.65
2019-01-19T08:27:39.173Z,18.48
2019-01-19T08:30:21.995Z,22.13
2019-01-19T08:32:50.425Z,24.30
2019-01-19T08:35:19.090Z,23.80
2019-01-19T08:37:48.304Z,21.70
2019-01-19T08:40:31.342Z,27.67
2019-01-19T08:43:01.450Z,27.55
2019-01-19T08:45:29.905Z,32.58
2019-01-19T08:47:58.927Z,23.83
2019-01-19T08:50:27.424Z,26.42
2019-01-19T08:52:55.827Z,21.45
2019-01-19T08:55:24.302Z,27.15
2019-01-19T08:57:52.755Z,26.85
2019-01-19T09:00:21.882Z,26.45
2019-01-19T09:02:50.339Z,25.35
2019-01-19T09:05:18.868Z,26.45
2019-01-19T09:07:47.304Z,26.75
2019-01-19T09:10:19.472Z,27.52
2019-01-19T09:12:47.909Z,28.62
2019-01-19T09:15:21.989Z,27.42
2019-01-19T09:17:50.440Z,26.55
2019-01-19T09:20:19.277Z,31.35
2019-01-19T09:22:49.478Z,24.72
2019-01-19T09:25:17.927Z,24.40
2019-01-19T09:27:46.418Z,21.17
2019-01-19T09:30:20.055Z,28.98
2019-01-19T09:32:48.523Z,27.62
2019-01-19T09:35:17.315Z,28.20
2019-01-19T09:37:46.954Z,25.00
2019-01-19T09:40:16.917Z,25.95
2019-01-19T09:42:45.745Z,25.72
2019-01-19T09:45:16.526Z,28.10
2019-01-19T09:47:45.002Z,27.25
2019-01-19T09:50:15.830Z,25.57
2019-01-19T09:52:44.308Z,26.20
2019-01-19T09:55:12.908Z,25.77
2019-01-19T09:57:41.372Z,19.10
2019-01-19T10:00:13.130Z,22.02
2019-01-19T10:02:41.611Z,27.67
2019-01-19T10:05:15.818Z,23.15
2019-01-19T10:07:48.396Z,29.70
2019-01-19T10:10:14.887Z,25.27
2019-01-19T10:12:43.370Z,29.67
2019-01-19T10:15:14.459Z,30.05
2019-01-19T10:17:42.964Z,29.50
2019-01-19T10:20:20.312Z,26.48
2019-01-19T10:22:48.788Z,20.72
2019-01-19T10:25:17.604Z,28.15
2019-01-19T10:27:46.208Z,24.02
2019-01-19T10:30:17.340Z,28.10
2019-01-19T10:32:45.886Z,28.77
2019-01-19T10:35:15.461Z,31.48
2019-01-19T10:37:43.924Z,27.87
2019-01-19T10:40:14.799Z,27.48
2019-01-19T10:42:43.271Z,31.70
2019-01-19T10:45:17.097Z,27.02
2019-01-19T10:47:45.705Z,33.18
2019-01-19T10:50:16.603Z,28.90
2019-01-19T10:52:45.290Z,31.10
2019-01-19T10:55:16.201Z,28.23
2019-01-19T10:57:44.696Z,25.05
2019-01-19T11:00:27.471Z,27.58
2019-01-19T11:02:56.847Z,24.47
2019-01-19T11:05:25.430Z,25.48
2019-01-19T11:07:54.149Z,33.80
2019-01-19T11:10:25.043Z,29.25
2019-01-19T11:12:53.524Z,25.50
2019-01-19T11:15:21.996Z,28.83
2019-01-19T11:17:50.445Z,27.98
2019-01-19T11:20:21.638Z,25.80
2019-01-19T11:22:50.105Z,23.80
2019-01-19T11:25:21.559Z,25.65
2019-01-19T11:27:50.022Z,25.57
2019-01-19T11:30:20.868Z,31.33
2019-01-19T11:32:49.274Z,21.50
2019-01-19T11:35:18.462Z,26.82
2019-01-19T11:37:46.932Z,24.40
2019-01-19T11:40:18.462Z,27.40
2019-01-19T11:42:47.249Z,24.40
2019-01-19T11:45:20.788Z,33.33
2019-01-19T11:47:49.300Z,24.20
2019-01-19T11:50:19.392Z,24.35
2019-01-19T11:52:48.181Z,31.42
2019-01-19T11:55:19.393Z,29.02
2019-01-19T11:57:50.297Z,24.37
2019-01-19T12:00:33.288Z,24.60
2019-01-19T12:03:01.755Z,29.87
2019-01-19T12:05:32.853Z,29.27
2019-01-19T12:08:02.420Z,22.70
2019-01-19T12:10:31.774Z,45.38
2019-01-19T12:13:00.505Z,32.03
2019-01-19T12:15:29.223Z,26.20
2019-01-19T12:17:58.128Z,24.65
2019-01-19T12:20:30.761Z,22.82
2019-01-19T12:22:59.376Z,30.62
2019-01-19T12:25:28.100Z,23.77
2019-01-19T12:27:56.585Z,27.55
2019-01-19T12:30:29.759Z,30.12
2019-01-19T12:32:58.278Z,19.95
2019-01-19T12:35:26.892Z,26.37
2019-01-19T12:37:55.682Z,25.08
2019-01-19T12:40:26.191Z,25.55
2019-01-19T12:42:57.608Z,27.75
2019-01-19T12:45:32.483Z,24.37
2019-01-19T12:48:01.041Z,27.20
2019-01-19T12:50:29.481Z,35.73
2019-01-19T12:52:57.925Z,26.12
2019-01-19T12:55:26.452Z,23.57
2019-01-19T12:57:54.931Z,25.68
2019-01-19T13:00:26.123Z,24.72
2019-01-19T13:02:55.409Z,22.77
2019-01-19T13:05:33.160Z,25.85
2019-01-19T13:08:01.903Z,22.00
2019-01-19T13:10:33.842Z,29.25
2019-01-19T13:13:03.490Z,25.62
2019-01-19T13:15:50.152Z,21.48
2019-01-19T13:18:39.983Z,25.35
2019-01-19T13:21:37.274Z,30.75
2019-01-19T13:24:11.720Z,24.07
2019-01-19T13:27:13.971Z,27.65
2019-01-19T13:30:02.272Z,28.60
2019-01-19T13:32:42.732Z,25.37
2019-01-19T13:35:30.784Z,25.80
2019-01-19T13:38:08.098Z,26.05
2019-01-19T13:40:42.150Z,32.42
2019-01-19T13:43:41.151Z,28.77
2019-01-19T13:46:35.215Z,28.42
2019-01-19T13:49:23.302Z,29.45
2019-01-19T13:51:54.906Z,27.65
2019-01-19T13:54:41.512Z,41.28
2019-01-19T13:57:31.110Z,25.25
2019-01-19T14:00:08.296Z,30.05
2019-01-19T14:02:45.472Z,19.80
2019-01-19T14:05:28.702Z,59.50
2019-01-19T14:08:11.478Z,36.08
2019-01-19T14:11:15.154Z,34.98
2019-01-19T14:13:58.753Z,26.07
2019-01-19T14:16:30.344Z,29.37
2019-01-19T14:19:04.654Z,28.80
2019-01-19T14:21:45.068Z,24.15
2019-01-19T14:24:25.874Z,28.92
2019-01-19T14:27:15.980Z,37.25
2019-01-19T14:29:53.502Z,32.38
2019-01-19T14:32:43.112Z,23.27
2019-01-19T14:35:14.600Z,25.57
2019-01-19T14:37:48.848Z,26.33
2019-01-19T14:40:29.321Z,30.43
2019-01-19T14:43:30.014Z,26.82
2019-01-19T14:46:12.845Z,29.23
2019-01-19T14:48:50.091Z,36.13
2019-01-19T14:51:39.525Z,27.55
2019-01-19T14:54:23.352Z,26.93
2019-01-19T14:57:06.832Z,29.42
2019-01-19T14:59:49.588Z,24.92
2019-01-19T15:02:29.883Z,24.23
2019-01-19T15:05:07.287Z,24.35
2019-01-19T15:07:59.772Z,27.40
2019-01-19T15:10:43.117Z,23.00
2019-01-19T15:13:14.665Z,29.02
2019-01-19T15:16:02.579Z,26.02
2019-01-19T15:18:36.932Z,31.40
2019-01-19T15:21:19.922Z,29.70
2019-01-19T15:23:54.207Z,29.02
2019-01-19T15:26:31.829Z,27.27
2019-01-19T15:29:12.106Z,26.20
2019-01-19T15:31:49.526Z,26.12
2019-01-19T15:34:25.353Z,32.05
2019-01-19T15:37:19.427Z,34.83
2019-01-19T15:40:08.841Z,35.92
2019-01-19T15:42:48.382Z,29.55
2019-01-19T15:45:22.690Z,39.90
2019-01-19T15:48:15.198Z,33.70
2019-01-19T15:51:14.216Z,28.77
2019-01-19T15:53:51.471Z,28.17
2019-01-19T15:56:35.004Z,34.38
2019-01-19T15:59:27.079Z,29.77
2019-01-19T16:02:13.598Z,28.35
2019-01-19T16:04:54.180Z,33.55
2019-01-19T16:07:34.543Z,30.20
2019-01-19T16:10:17.935Z,26.60
2019-01-19T16:12:52.481Z,30.85
2019-01-19T16:15:29.240Z,29.82
2019-01-19T16:18:26.436Z,27.58
2019-01-19T16:20:57.947Z,33.40
2019-01-19T16:23:41.463Z,28.15
2019-01-19T16:26:15.827Z,30.90
2019-01-19T16:28:53.123Z,28.52
2019-01-19T16:31:33.614Z,27.95
2019-01-19T16:34:17.154Z,27.52
2019-01-19T16:37:07.063Z,28.85
2019-01-19T16:40:01.233Z,28.30
2019-01-19T16:42:35.832Z,28.25
2019-01-19T16:45:18.798Z,33.98
2019-01-19T16:47:53.223Z,30.70
2019-01-19T16:50:40.945Z,32.05
2019-01-19T16:53:20.802Z,29.30
2019-01-19T16:56:10.408Z,29.80
2019-01-19T16:58:57.097Z,29.52
2019-01-19T17:01:39.933Z,31.97
2019-01-19T17:04:29.754Z,40.08
2019-01-19T17:07:10.872Z,28.60
2019-01-19T17:09:48.096Z,30.57
2019-01-19T17:12:42.266Z,28.65
2019-01-19T17:15:40.872Z,27.67
2019-01-19T17:18:15.154Z,35.83
2019-01-19T17:21:12.206Z,37.45
2019-01-19T17:23:46.681Z,36.15
2019-01-19T17:26:48.821Z,38.67
2019-01-19T17:29:41.211Z,34.27
2019-01-19T17:32:24.588Z,31.95
2019-01-19T17:35:14.026Z,35.98
2019-01-19T17:37:53.057Z,32.93
2019-01-19T17:40:24.965Z,36.83
2019-01-19T17:43:02.696Z,31.27
2019-01-19T17:45:45.862Z,34.25
2019-01-19T17:48:26.442Z,41.15
2019-01-19T17:51:28.051Z,40.15
2019-01-19T17:54:25.007Z,44.03
2019-01-19T17:57:05.318Z,71.45
2019-01-19T17:59:56.691Z,36.03
2019-01-19T18:02:37.271Z,36.58
2019-01-19T18:05:18.445Z,46.35
2019-01-19T18:07:52.997Z,41.75
2019-01-19T18:10:33.634Z,35.00
2019-01-19T18:13:11.384Z,38.25
2019-01-19T18:15:48.636Z,29.98
2019-01-19T18:18:22.969Z,37.67
2019-01-19T18:21:06.519Z,30.40
2019-01-19T18:23:49.862Z,33.67
2019-01-19T18:26:30.274Z,27.90
2019-01-19T18:29:21.216Z,28.57
2019-01-19T18:32:14.091Z,31.48
2019-01-19T18:34:57.373Z,31.10
2019-01-19T18:37:31.407Z,33.33
2019-01-19T18:40:06.420Z,31.30
2019-01-19T18:42:49.827Z,30.45
2019-01-19T18:45:26.818Z,28.35
2019-01-19T18:47:58.381Z,45.35
2019-01-19T18:50:32.693Z,50.25
2019-01-19T18:53:27.788Z,42.78
2019-01-19T18:56:07.831Z,45.05
2019-01-19T18:58:45.018Z,41.70
2019-01-19T19:01:19.359Z,62.17
2019-01-19T19:03:56.694Z,51.13
2019-01-19T19:06:47.755Z,55.95
2019-01-19T19:09:37.129Z,54.50
2019-01-19T19:12:31.268Z,55.70
2019-01-19T19:15:19.399Z,52.85
2019-01-19T19:18:05.980Z,48.55
2019-01-19T19:20:40.508Z,51.10
2019-01-19T19:23:21.335Z,38.98
2019-01-19T19:26:07.724Z,41.00
2019-01-19T19:28:57.386Z,47.55
2019-01-19T19:31:28.920Z,46.77
2019-01-19T19:34:12.366Z,44.50
2019-01-19T19:36:55.676Z,38.45
2019-01-19T19:40:00.259Z,39.38
2019-01-19T19:42:46.437Z,40.85
2019-01-19T19:45:33.071Z,41.65
2019-01-19T19:48:22.466Z,40.30
2019-01-19T19:50:56.650Z,54.45
2019-01-19T19:53:25.119Z,128.38
2019-01-19T19:55:52.478Z,40.20
2019-01-19T19:58:20.998Z,39.90
2019-01-19T20:00:50.718Z,46.80
2019-01-19T20:03:19.216Z,55.52
2019-01-19T20:05:47.715Z,60.85
2019-01-19T20:08:16.223Z,53.48
2019-01-19T20:10:46.337Z,52.80
2019-01-19T20:13:14.831Z,39.70
2019-01-19T20:15:43.358Z,37.13
2019-01-19T20:18:11.845Z,35.05
2019-01-19T20:20:41.447Z,36.93
2019-01-19T20:23:09.946Z,35.85
2019-01-19T20:25:38.440Z,32.85
2019-01-19T20:28:06.956Z,29.27
2019-01-19T20:30:45.269Z,32.45
2019-01-19T20:33:13.749Z,29.60
2019-01-19T20:35:43.793Z,29.15
2019-01-19T20:38:12.268Z,30.92
2019-01-19T20:40:40.758Z,28.23
2019-01-19T20:43:09.228Z,31.00
2019-01-19T20:45:37.723Z,35.55
2019-01-19T20:48:06.199Z,30.23
2019-01-19T20:50:34.681Z,30.40
2019-01-19T20:53:03.197Z,33.58
2019-01-19T20:55:31.675Z,32.85
2019-01-19T20:58:00.288Z,28.60
2019-01-19T21:00:28.859Z,34.58
2019-01-19T21:02:59.598Z,33.23
2019-01-19T21:05:28.110Z,34.10
2019-01-19T21:07:56.691Z,31.87
2019-01-19T21:10:31.556Z,30.57
2019-01-19T21:12:55.382Z,34.45
2019-01-19T21:15:25.081Z,31.52
2019-01-19T21:17:55.819Z,36.70
2019-01-19T21:20:23.776Z,34.35
2019-01-19T21:22:52.303Z,37.65
2019-01-19T21:25:20.772Z,32.95
2019-01-19T21:27:49.285Z,31.10
2019-01-19T21:30:18.272Z,34.38
2019-01-19T21:32:46.753Z,38.17
2019-01-19T21:35:15.407Z,33.28
2019-01-19T21:37:43.957Z,34.05
2019-01-19T21:40:14.049Z,36.88
2019-01-19T21:42:42.538Z,29.80
2019-01-19T21:45:16.814Z,35.83
2019-01-19T21:47:45.329Z,43.33
2019-01-19T21:50:13.849Z,32.63
2019-01-19T21:52:42.360Z,29.65
2019-01-19T21:55:11.352Z,32.48
2019-01-19T21:57:40.153Z,29.50
2019-01-19T22:00:14.522Z,37.55
2019-01-19T22:02:43.038Z,31.68
2019-01-19T22:05:11.689Z,31.55
2019-01-19T22:07:40.201Z,34.98
2019-01-19T22:10:20.126Z,29.25
2019-01-19T22:12:48.609Z,32.55
2019-01-19T22:15:18.831Z,34.40
2019-01-19T22:17:47.327Z,32.08
2019-01-19T22:20:17.637Z,35.85
2019-01-19T22:22:46.149Z,33.80
2019-01-19T22:25:14.884Z,32.13
2019-01-19T22:27:44.984Z,31.25
2019-01-19T22:30:19.290Z,34.83
2019-01-19T22:32:49.134Z,33.50
2019-01-19T22:35:17.687Z,31.75
2019-01-19T22:37:46.154Z,34.80
2019-01-19T22:40:17.422Z,32.95
2019-01-19T22:42:48.590Z,36.40
2019-01-19T22:45:17.607Z,35.38
2019-01-19T22:47:46.237Z,37.93
2019-01-19T22:50:16.466Z,39.65
2019-01-19T22:52:45.027Z,41.63
2019-01-19T22:55:13.851Z,34.83
2019-01-19T22:57:42.308Z,34.35
2019-01-19T23:00:24.213Z,33.67
2019-01-19T23:02:52.686Z,34.60
2019-01-19T23:05:21.199Z,42.53
2019-01-19T23:07:49.675Z,33.10
2019-01-19T23:10:18.186Z,34.48
2019-01-19T23:12:46.654Z,39.35
2019-01-19T23:15:15.629Z,37.80
2019-01-19T23:17:44.101Z,39.30
2019-01-19T23:20:12.905Z,54.93
2019-01-19T23:22:41.358Z,44.18
2019-01-19T23:25:10.011Z,37.73
2019-01-19T23:27:38.462Z,41.30
2019-01-19T23:30:09.975Z,34.23
2019-01-19T23:32:38.482Z,40.70
2019-01-19T23:35:08.642Z,38.30
2019-01-19T23:37:37.099Z,40.48
2019-01-19T23:40:08.632Z,46.33
2019-01-19T23:42:37.102Z,36.10
2019-01-19T23:45:08.662Z,39.55
2019-01-19T23:47:37.106Z,38.92
2019-01-19T23:50:08.380Z,46.70
2019-01-19T23:52:36.840Z,39.95
2019-01-19T23:55:06.430Z,41.08
2019-01-19T23:57:35.061Z,44.50
